sensor_id;sensor_type;location;lat;lon;timestamp;P1;durP1;ratioP1;P2;durP2;ratioP2
17091;SDS011;8661;45.700;4.880;2024-03-08T00:01:00;8.27;;;2.80;;
17091;SDS011;8661;45.700;4.880;2024-03-08T00:03:27;8.63;;;2.60;;
17091;SDS011;8661;45.700;4.880;2024-03-08T00:05:54;5.33;;;2.30;;
17091;SDS011;8661;45.700;4.880;2024-03-08T00:08:21;6.37;;;2.73;;
17091;SDS011;8661;45.700;4.880;2024-03-08T00:10:48;5.37;;;2.50;;
17091;SDS011;8661;45.700;4.880;2024-03-08T00:13:16;3.70;;;2.20;;
17091;SDS011;8661;45.700;4.880;2024-03-08T00:15:43;4.27;;;2.00;;
17091;SDS011;8661;45.700;4.880;2024-03-08T00:18:10;5.57;;;1.93;;
17091;SDS011;8661;45.700;4.880;2024-03-08T00:20:36;4.03;;;2.20;;
17091;SDS011;8661;45.700;4.880;2024-03-08T00:23:03;2.30;;;1.77;;
17091;SDS011;8661;45.700;4.880;2024-03-08T00:25:30;2.83;;;1.70;;
17091;SDS011;8661;45.700;4.880;2024-03-08T00:27:57;5.77;;;2.67;;
17091;SDS011;8661;45.700;4.880;2024-03-08T00:30:26;5.37;;;2.00;;
17091;SDS011;8661;45.700;4.880;2024-03-08T00:32:53;6.40;;;2.47;;
17091;SDS011;8661;45.700;4.880;2024-03-08T00:35:20;4.67;;;1.90;;
17091;SDS011;8661;45.700;4.880;2024-03-08T00:37:47;3.00;;;1.97;;
17091;SDS011;8661;45.700;4.880;2024-03-08T00:40:15;6.00;;;2.00;;
17091;SDS011;8661;45.700;4.880;2024-03-08T00:42:42;6.40;;;2.27;;
17091;SDS011;8661;45.700;4.880;2024-03-08T00:45:09;6.43;;;2.40;;
17091;SDS011;8661;45.700;4.880;2024-03-08T00:47:38;6.30;;;2.53;;
17091;SDS011;8661;45.700;4.880;2024-03-08T00:50:07;4.47;;;2.50;;
17091;SDS011;8661;45.700;4.880;2024-03-08T00:52:34;6.07;;;2.40;;
17091;SDS011;8661;45.700;4.880;2024-03-08T00:55:01;3.70;;;2.00;;
17091;SDS011;8661;45.700;4.880;2024-03-08T00:57:28;5.60;;;2.17;;
17091;SDS011;8661;45.700;4.880;2024-03-08T00:59:55;6.03;;;2.47;;
17091;SDS011;8661;45.700;4.880;2024-03-08T01:02:22;3.50;;;2.40;;
17091;SDS011;8661;45.700;4.880;2024-03-08T01:04:50;6.17;;;2.43;;
17091;SDS011;8661;45.700;4.880;2024-03-08T01:07:18;7.53;;;3.10;;
17091;SDS011;8661;45.700;4.880;2024-03-08T01:09:45;3.47;;;2.50;;
17091;SDS011;8661;45.700;4.880;2024-03-08T01:12:12;4.87;;;2.53;;
17091;SDS011;8661;45.700;4.880;2024-03-08T01:14:39;9.57;;;3.03;;
17091;SDS011;8661;45.700;4.880;2024-03-08T01:17:06;4.60;;;2.80;;
17091;SDS011;8661;45.700;4.880;2024-03-08T01:19:34;4.47;;;2.70;;
17091;SDS011;8661;45.700;4.880;2024-03-08T01:22:02;4.90;;;3.13;;
17091;SDS011;8661;45.700;4.880;2024-03-08T01:24:29;6.20;;;2.73;;
17091;SDS011;8661;45.700;4.880;2024-03-08T01:26:56;5.13;;;2.63;;
17091;SDS011;8661;45.700;4.880;2024-03-08T01:29:23;5.87;;;2.60;;
17091;SDS011;8661;45.700;4.880;2024-03-08T01:31:50;4.97;;;3.30;;
17091;SDS011;8661;45.700;4.880;2024-03-08T01:34:17;10.60;;;2.83;;
17091;SDS011;8661;45.700;4.880;2024-03-08T01:36:44;5.03;;;3.13;;
17091;SDS011;8661;45.700;4.880;2024-03-08T01:39:12;7.37;;;3.37;;
17091;SDS011;8661;45.700;4.880;2024-03-08T01:41:39;5.53;;;3.30;;
17091;SDS011;8661;45.700;4.880;2024-03-08T01:44:06;7.93;;;3.03;;
17091;SDS011;8661;45.700;4.880;2024-03-08T01:46:34;6.10;;;3.20;;
17091;SDS011;8661;45.700;4.880;2024-03-08T01:49:01;6.43;;;3.23;;
17091;SDS011;8661;45.700;4.880;2024-03-08T01:51:29;7.63;;;3.20;;
17091;SDS011;8661;45.700;4.880;2024-03-08T01:53:57;8.73;;;3.27;;
17091;SDS011;8661;45.700;4.880;2024-03-08T01:56:27;5.60;;;3.07;;
17091;SDS011;8661;45.700;4.880;2024-03-08T01:58:55;8.97;;;3.47;;
17091;SDS011;8661;45.700;4.880;2024-03-08T02:01:22;6.93;;;2.87;;
17091;SDS011;8661;45.700;4.880;2024-03-08T02:03:49;5.67;;;3.17;;
17091;SDS011;8661;45.700;4.880;2024-03-08T02:06:16;8.47;;;3.10;;
17091;SDS011;8661;45.700;4.880;2024-03-08T02:08:43;6.40;;;3.10;;
17091;SDS011;8661;45.700;4.880;2024-03-08T02:11:10;5.37;;;3.10;;
17091;SDS011;8661;45.700;4.880;2024-03-08T02:13:39;5.53;;;2.70;;
17091;SDS011;8661;45.700;4.880;2024-03-08T02:16:09;8.87;;;3.20;;
17091;SDS011;8661;45.700;4.880;2024-03-08T02:18:37;7.30;;;3.40;;
17091;SDS011;8661;45.700;4.880;2024-03-08T02:21:06;4.73;;;2.70;;
17091;SDS011;8661;45.700;4.880;2024-03-08T02:23:33;8.07;;;3.20;;
17091;SDS011;8661;45.700;4.880;2024-03-08T02:26:00;5.23;;;2.80;;
17091;SDS011;8661;45.700;4.880;2024-03-08T02:28:29;8.07;;;2.90;;
17091;SDS011;8661;45.700;4.880;2024-03-08T02:30:57;4.60;;;3.03;;
17091;SDS011;8661;45.700;4.880;2024-03-08T02:33:24;4.57;;;2.60;;
17091;SDS011;8661;45.700;4.880;2024-03-08T02:35:51;5.00;;;2.50;;
17091;SDS011;8661;45.700;4.880;2024-03-08T02:38:20;6.40;;;2.80;;
17091;SDS011;8661;45.700;4.880;2024-03-08T02:40:50;6.93;;;2.83;;
17091;SDS011;8661;45.700;4.880;2024-03-08T02:43:18;5.37;;;3.00;;
17091;SDS011;8661;45.700;4.880;2024-03-08T02:45:47;4.50;;;2.40;;
17091;SDS011;8661;45.700;4.880;2024-03-08T02:48:15;3.27;;;2.40;;
17091;SDS011;8661;45.700;4.880;2024-03-08T02:50:42;3.57;;;2.63;;
17091;SDS011;8661;45.700;4.880;2024-03-08T02:53:09;5.63;;;2.57;;
17091;SDS011;8661;45.700;4.880;2024-03-08T02:55:39;7.27;;;2.50;;
17091;SDS011;8661;45.700;4.880;2024-03-08T02:58:06;9.00;;;2.50;;
17091;SDS011;8661;45.700;4.880;2024-03-08T03:00:35;5.50;;;2.57;;
17091;SDS011;8661;45.700;4.880;2024-03-08T03:03:02;7.70;;;2.67;;
17091;SDS011;8661;45.700;4.880;2024-03-08T03:05:29;4.03;;;2.50;;
17091;SDS011;8661;45.700;4.880;2024-03-08T03:07:57;5.00;;;2.47;;
17091;SDS011;8661;45.700;4.880;2024-03-08T03:10:24;4.50;;;2.70;;
17091;SDS011;8661;45.700;4.880;2024-03-08T03:12:52;6.60;;;2.80;;
17091;SDS011;8661;45.700;4.880;2024-03-08T03:15:19;6.30;;;2.53;;
17091;SDS011;8661;45.700;4.880;2024-03-08T03:17:47;4.80;;;2.60;;
17091;SDS011;8661;45.700;4.880;2024-03-08T03:20:16;4.53;;;2.30;;
17091;SDS011;8661;45.700;4.880;2024-03-08T03:22:48;4.30;;;2.43;;
17091;SDS011;8661;45.700;4.880;2024-03-08T03:25:17;2.27;;;1.90;;
17091;SDS011;8661;45.700;4.880;2024-03-08T03:27:48;3.67;;;1.80;;
17091;SDS011;8661;45.700;4.880;2024-03-08T03:30:17;2.07;;;1.77;;
17091;SDS011;8661;45.700;4.880;2024-03-08T03:32:47;3.30;;;2.13;;
17091;SDS011;8661;45.700;4.880;2024-03-08T03:35:14;5.77;;;2.17;;
17091;SDS011;8661;45.700;4.880;2024-03-08T03:37:43;5.87;;;1.90;;
17091;SDS011;8661;45.700;4.880;2024-03-08T03:40:16;2.70;;;1.80;;
17091;SDS011;8661;45.700;4.880;2024-03-08T03:42:44;2.77;;;1.60;;
17091;SDS011;8661;45.700;4.880;2024-03-08T03:45:11;5.10;;;1.77;;
17091;SDS011;8661;45.700;4.880;2024-03-08T03:47:42;3.87;;;1.80;;
17091;SDS011;8661;45.700;4.880;2024-03-08T03:50:09;4.20;;;1.93;;
17091;SDS011;8661;45.700;4.880;2024-03-08T03:52:36;3.13;;;1.67;;
17091;SDS011;8661;45.700;4.880;2024-03-08T03:55:03;5.73;;;1.53;;
17091;SDS011;8661;45.700;4.880;2024-03-08T03:57:30;5.27;;;1.60;;
17091;SDS011;8661;45.700;4.880;2024-03-08T03:59:58;3.50;;;1.70;;
17091;SDS011;8661;45.700;4.880;2024-03-08T04:02:27;3.40;;;1.63;;
17091;SDS011;8661;45.700;4.880;2024-03-08T04:04:58;1.60;;;1.20;;
17091;SDS011;8661;45.700;4.880;2024-03-08T04:07:25;3.53;;;1.70;;
17091;SDS011;8661;45.700;4.880;2024-03-08T04:09:52;3.17;;;1.60;;
17091;SDS011;8661;45.700;4.880;2024-03-08T04:12:19;1.57;;;1.33;;
17091;SDS011;8661;45.700;4.880;2024-03-08T04:14:46;3.30;;;1.77;;
17091;SDS011;8661;45.700;4.880;2024-03-08T04:17:13;4.43;;;2.00;;
17091;SDS011;8661;45.700;4.880;2024-03-08T04:19:40;5.17;;;2.40;;
17091;SDS011;8661;45.700;4.880;2024-03-08T04:22:08;3.67;;;2.27;;
17091;SDS011;8661;45.700;4.880;2024-03-08T04:24:35;4.77;;;2.43;;
17091;SDS011;8661;45.700;4.880;2024-03-08T04:27:02;3.37;;;2.30;;
17091;SDS011;8661;45.700;4.880;2024-03-08T04:29:29;3.03;;;2.23;;
17091;SDS011;8661;45.700;4.880;2024-03-08T04:31:57;5.73;;;2.50;;
17091;SDS011;8661;45.700;4.880;2024-03-08T04:34:24;5.67;;;2.97;;
17091;SDS011;8661;45.700;4.880;2024-03-08T04:36:53;2.93;;;2.00;;
17091;SDS011;8661;45.700;4.880;2024-03-08T04:39:22;6.43;;;2.20;;
17091;SDS011;8661;45.700;4.880;2024-03-08T04:41:49;3.07;;;2.67;;
17091;SDS011;8661;45.700;4.880;2024-03-08T04:44:16;2.87;;;1.87;;
17091;SDS011;8661;45.700;4.880;2024-03-08T04:46:43;2.37;;;2.07;;
17091;SDS011;8661;45.700;4.880;2024-03-08T04:49:10;6.27;;;2.83;;
17091;SDS011;8661;45.700;4.880;2024-03-08T04:51:38;7.30;;;2.83;;
17091;SDS011;8661;45.700;4.880;2024-03-08T04:54:05;3.40;;;2.50;;
17091;SDS011;8661;45.700;4.880;2024-03-08T04:56:36;5.43;;;3.00;;
17091;SDS011;8661;45.700;4.880;2024-03-08T04:59:03;6.07;;;2.60;;
17091;SDS011;8661;45.700;4.880;2024-03-08T05:01:33;5.33;;;2.80;;
17091;SDS011;8661;45.700;4.880;2024-03-08T05:04:01;4.00;;;2.67;;
17091;SDS011;8661;45.700;4.880;2024-03-08T05:06:28;5.33;;;2.60;;
17091;SDS011;8661;45.700;4.880;2024-03-08T05:08:55;6.63;;;2.63;;
17091;SDS011;8661;45.700;4.880;2024-03-08T05:11:22;4.03;;;2.50;;
17091;SDS011;8661;45.700;4.880;2024-03-08T05:13:50;5.17;;;2.43;;
17091;SDS011;8661;45.700;4.880;2024-03-08T05:16:18;3.63;;;2.73;;
17091;SDS011;8661;45.700;4.880;2024-03-08T05:18:47;4.30;;;2.70;;
17091;SDS011;8661;45.700;4.880;2024-03-08T05:21:14;6.17;;;3.00;;
17091;SDS011;8661;45.700;4.880;2024-03-08T05:23:45;5.67;;;3.10;;
17091;SDS011;8661;45.700;4.880;2024-03-08T05:26:12;3.30;;;2.77;;
17091;SDS011;8661;45.700;4.880;2024-03-08T05:28:40;4.73;;;2.90;;
17091;SDS011;8661;45.700;4.880;2024-03-08T05:31:08;4.07;;;3.10;;
17091;SDS011;8661;45.700;4.880;2024-03-08T05:33:35;4.00;;;3.00;;
17091;SDS011;8661;45.700;4.880;2024-03-08T05:36:03;5.17;;;3.03;;
17091;SDS011;8661;45.700;4.880;2024-03-08T05:38:31;5.97;;;3.50;;
17091;SDS011;8661;45.700;4.880;2024-03-08T05:40:58;7.50;;;3.57;;
17091;SDS011;8661;45.700;4.880;2024-03-08T05:43:26;4.23;;;2.77;;
17091;SDS011;8661;45.700;4.880;2024-03-08T05:45:53;4.90;;;3.23;;
17091;SDS011;8661;45.700;4.880;2024-03-08T05:48:21;7.17;;;3.40;;
17091;SDS011;8661;45.700;4.880;2024-03-08T05:50:48;5.53;;;2.90;;
17091;SDS011;8661;45.700;4.880;2024-03-08T05:53:15;5.93;;;2.83;;
17091;SDS011;8661;45.700;4.880;2024-03-08T05:55:42;6.53;;;3.20;;
17091;SDS011;8661;45.700;4.880;2024-03-08T05:58:08;4.53;;;3.10;;
17091;SDS011;8661;45.700;4.880;2024-03-08T06:00:36;3.87;;;2.53;;
17091;SDS011;8661;45.700;4.880;2024-03-08T06:03:03;6.30;;;3.00;;
17091;SDS011;8661;45.700;4.880;2024-03-08T06:05:32;5.57;;;2.87;;
17091;SDS011;8661;45.700;4.880;2024-03-08T06:07:58;4.47;;;3.03;;
17091;SDS011;8661;45.700;4.880;2024-03-08T06:10:25;9.93;;;3.30;;
17091;SDS011;8661;45.700;4.880;2024-03-08T06:12:53;6.63;;;3.33;;
17091;SDS011;8661;45.700;4.880;2024-03-08T06:15:20;8.13;;;4.20;;
17091;SDS011;8661;45.700;4.880;2024-03-08T06:17:47;9.87;;;4.00;;
17091;SDS011;8661;45.700;4.880;2024-03-08T06:20:14;9.33;;;3.53;;
17091;SDS011;8661;45.700;4.880;2024-03-08T06:22:42;5.77;;;3.87;;
17091;SDS011;8661;45.700;4.880;2024-03-08T06:25:10;7.67;;;4.67;;
17091;SDS011;8661;45.700;4.880;2024-03-08T06:27:39;6.73;;;4.10;;
17091;SDS011;8661;45.700;4.880;2024-03-08T06:30:07;6.13;;;3.83;;
17091;SDS011;8661;45.700;4.880;2024-03-08T06:32:35;5.30;;;4.07;;
17091;SDS011;8661;45.700;4.880;2024-03-08T06:35:02;9.03;;;4.97;;
17091;SDS011;8661;45.700;4.880;2024-03-08T06:37:31;9.67;;;4.67;;
17091;SDS011;8661;45.700;4.880;2024-03-08T06:39:59;7.03;;;4.20;;
17091;SDS011;8661;45.700;4.880;2024-03-08T06:42:28;9.33;;;4.87;;
17091;SDS011;8661;45.700;4.880;2024-03-08T06:44:58;8.60;;;4.87;;
17091;SDS011;8661;45.700;4.880;2024-03-08T06:47:29;8.20;;;4.50;;
17091;SDS011;8661;45.700;4.880;2024-03-08T06:49:56;7.77;;;4.73;;
17091;SDS011;8661;45.700;4.880;2024-03-08T06:52:23;8.60;;;5.13;;
17091;SDS011;8661;45.700;4.880;2024-03-08T06:54:50;6.27;;;4.80;;
17091;SDS011;8661;45.700;4.880;2024-03-08T06:57:18;6.63;;;4.83;;
17091;SDS011;8661;45.700;4.880;2024-03-08T06:59:47;6.70;;;4.50;;
17091;SDS011;8661;45.700;4.880;2024-03-08T07:02:14;25.37;;;6.13;;
17091;SDS011;8661;45.700;4.880;2024-03-08T07:04:41;11.83;;;4.90;;
17091;SDS011;8661;45.700;4.880;2024-03-08T07:07:08;8.47;;;4.77;;
17091;SDS011;8661;45.700;4.880;2024-03-08T07:09:35;11.13;;;5.67;;
17091;SDS011;8661;45.700;4.880;2024-03-08T07:12:02;10.07;;;5.57;;
17091;SDS011;8661;45.700;4.880;2024-03-08T07:14:31;10.17;;;5.03;;
17091;SDS011;8661;45.700;4.880;2024-03-08T07:16:57;17.47;;;5.63;;
17091;SDS011;8661;45.700;4.880;2024-03-08T07:19:25;12.93;;;6.07;;
17091;SDS011;8661;45.700;4.880;2024-03-08T07:21:51;15.63;;;6.13;;
17091;SDS011;8661;45.700;4.880;2024-03-08T07:24:20;11.50;;;5.60;;
17091;SDS011;8661;45.700;4.880;2024-03-08T07:27:05;13.27;;;6.47;;
17091;SDS011;8661;45.700;4.880;2024-03-08T07:29:33;10.30;;;5.40;;
17091;SDS011;8661;45.700;4.880;2024-03-08T07:32:00;16.63;;;6.37;;
17091;SDS011;8661;45.700;4.880;2024-03-08T07:34:37;12.43;;;6.53;;
17091;SDS011;8661;45.700;4.880;2024-03-08T07:37:05;16.47;;;6.23;;
17091;SDS011;8661;45.700;4.880;2024-03-08T07:39:36;13.33;;;6.03;;
17091;SDS011;8661;45.700;4.880;2024-03-08T07:42:04;14.33;;;6.03;;
17091;SDS011;8661;45.700;4.880;2024-03-08T07:44:31;11.20;;;5.67;;
17091;SDS011;8661;45.700;4.880;2024-03-08T07:46:59;10.57;;;5.80;;
17091;SDS011;8661;45.700;4.880;2024-03-08T07:49:26;11.27;;;5.37;;
17091;SDS011;8661;45.700;4.880;2024-03-08T07:51:53;9.50;;;5.10;;
17091;SDS011;8661;45.700;4.880;2024-03-08T07:54:20;8.17;;;5.80;;
17091;SDS011;8661;45.700;4.880;2024-03-08T07:56:48;9.80;;;5.70;;
17091;SDS011;8661;45.700;4.880;2024-03-08T07:59:16;8.67;;;5.53;;
17091;SDS011;8661;45.700;4.880;2024-03-08T08:01:43;9.57;;;5.17;;
17091;SDS011;8661;45.700;4.880;2024-03-08T08:04:13;11.77;;;5.83;;
17091;SDS011;8661;45.700;4.880;2024-03-08T08:06:43;9.57;;;5.60;;
17091;SDS011;8661;45.700;4.880;2024-03-08T08:09:12;9.73;;;5.23;;
17091;SDS011;8661;45.700;4.880;2024-03-08T08:11:40;8.80;;;5.30;;
17091;SDS011;8661;45.700;4.880;2024-03-08T08:14:08;7.90;;;5.03;;
17091;SDS011;8661;45.700;4.880;2024-03-08T08:16:35;7.13;;;5.23;;
17091;SDS011;8661;45.700;4.880;2024-03-08T08:19:03;13.57;;;5.60;;
17091;SDS011;8661;45.700;4.880;2024-03-08T08:21:34;11.93;;;5.90;;
17091;SDS011;8661;45.700;4.880;2024-03-08T08:24:02;13.03;;;6.53;;
17091;SDS011;8661;45.700;4.880;2024-03-08T08:26:29;10.40;;;6.17;;
17091;SDS011;8661;45.700;4.880;2024-03-08T08:28:56;8.93;;;5.93;;
17091;SDS011;8661;45.700;4.880;2024-03-08T08:31:23;6.93;;;5.93;;
17091;SDS011;8661;45.700;4.880;2024-03-08T08:33:50;16.63;;;6.87;;
17091;SDS011;8661;45.700;4.880;2024-03-08T08:36:21;10.13;;;6.00;;
17091;SDS011;8661;45.700;4.880;2024-03-08T08:38:49;12.30;;;6.20;;
17091;SDS011;8661;45.700;4.880;2024-03-08T08:41:19;11.43;;;5.33;;
17091;SDS011;8661;45.700;4.880;2024-03-08T08:43:46;12.30;;;6.50;;
17091;SDS011;8661;45.700;4.880;2024-03-08T08:46:16;17.03;;;6.17;;
17091;SDS011;8661;45.700;4.880;2024-03-08T08:48:43;9.43;;;5.80;;
17091;SDS011;8661;45.700;4.880;2024-03-08T08:51:11;15.40;;;6.20;;
17091;SDS011;8661;45.700;4.880;2024-03-08T08:53:38;15.33;;;5.97;;
17091;SDS011;8661;45.700;4.880;2024-03-08T08:56:09;10.13;;;5.60;;
17091;SDS011;8661;45.700;4.880;2024-03-08T08:58:38;7.97;;;5.60;;
17091;SDS011;8661;45.700;4.880;2024-03-08T09:01:05;8.63;;;5.50;;
17091;SDS011;8661;45.700;4.880;2024-03-08T09:03:33;10.53;;;5.70;;
17091;SDS011;8661;45.700;4.880;2024-03-08T09:06:02;11.80;;;5.90;;
17091;SDS011;8661;45.700;4.880;2024-03-08T09:08:29;20.47;;;6.23;;
17091;SDS011;8661;45.700;4.880;2024-03-08T09:10:56;12.83;;;4.80;;
17091;SDS011;8661;45.700;4.880;2024-03-08T09:13:26;6.80;;;4.67;;
17091;SDS011;8661;45.700;4.880;2024-03-08T09:15:53;4.23;;;1.97;;
17091;SDS011;8661;45.700;4.880;2024-03-08T09:18:20;6.00;;;2.47;;
17091;SDS011;8661;45.700;4.880;2024-03-08T09:20:46;4.10;;;2.37;;
17091;SDS011;8661;45.700;4.880;2024-03-08T09:23:13;4.83;;;2.23;;
17091;SDS011;8661;45.700;4.880;2024-03-08T09:25:42;5.37;;;1.90;;
17091;SDS011;8661;45.700;4.880;2024-03-08T09:28:09;4.47;;;1.77;;
17091;SDS011;8661;45.700;4.880;2024-03-08T09:30:38;1.83;;;1.33;;
17091;SDS011;8661;45.700;4.880;2024-03-08T09:33:05;1.80;;;1.40;;
17091;SDS011;8661;45.700;4.880;2024-03-08T09:35:33;7.50;;;1.20;;
17091;SDS011;8661;45.700;4.880;2024-03-08T09:38:00;4.87;;;1.63;;
17091;SDS011;8661;45.700;4.880;2024-03-08T09:40:26;4.87;;;1.77;;
17091;SDS011;8661;45.700;4.880;2024-03-08T09:42:53;2.20;;;1.20;;
17091;SDS011;8661;45.700;4.880;2024-03-08T09:45:22;1.77;;;1.30;;
17091;SDS011;8661;45.700;4.880;2024-03-08T09:47:52;1.80;;;1.20;;
17091;SDS011;8661;45.700;4.880;2024-03-08T09:50:19;1.57;;;1.07;;
17091;SDS011;8661;45.700;4.880;2024-03-08T09:52:47;5.77;;;1.37;;
17091;SDS011;8661;45.700;4.880;2024-03-08T09:55:15;2.47;;;1.03;;
17091;SDS011;8661;45.700;4.880;2024-03-08T09:57:47;1.33;;;1.00;;
17091;SDS011;8661;45.700;4.880;2024-03-08T10:00:28;2.57;;;1.33;;
17091;SDS011;8661;45.700;4.880;2024-03-08T10:03:00;3.67;;;1.40;;
17091;SDS011;8661;45.700;4.880;2024-03-08T10:05:27;1.10;;;1.00;;
17091;SDS011;8661;45.700;4.880;2024-03-08T10:07:54;2.90;;;1.03;;
17091;SDS011;8661;45.700;4.880;2024-03-08T10:10:21;3.77;;;1.33;;
17091;SDS011;8661;45.700;4.880;2024-03-08T10:12:48;3.77;;;1.27;;
17091;SDS011;8661;45.700;4.880;2024-03-08T10:15:15;3.57;;;1.30;;
17091;SDS011;8661;45.700;4.880;2024-03-08T10:17:42;2.87;;;1.70;;
17091;SDS011;8661;45.700;4.880;2024-03-08T10:20:14;4.10;;;1.17;;
17091;SDS011;8661;45.700;4.880;2024-03-08T10:22:42;1.73;;;1.47;;
17091;SDS011;8661;45.700;4.880;2024-03-08T10:25:09;1.30;;;1.17;;
17091;SDS011;8661;45.700;4.880;2024-03-08T10:27:36;3.33;;;1.80;;
17091;SDS011;8661;45.700;4.880;2024-03-08T10:30:06;1.97;;;1.40;;
17091;SDS011;8661;45.700;4.880;2024-03-08T10:32:37;2.77;;;1.23;;
17091;SDS011;8661;45.700;4.880;2024-03-08T10:35:05;5.80;;;1.53;;
17091;SDS011;8661;45.700;4.880;2024-03-08T10:37:34;2.67;;;0.87;;
17091;SDS011;8661;45.700;4.880;2024-03-08T10:40:13;2.73;;;1.53;;
17091;SDS011;8661;45.700;4.880;2024-03-08T10:42:47;2.10;;;1.03;;
17091;SDS011;8661;45.700;4.880;2024-03-08T10:45:19;2.47;;;1.50;;
17091;SDS011;8661;45.700;4.880;2024-03-08T10:47:59;1.83;;;1.13;;
17091;SDS011;8661;45.700;4.880;2024-03-08T10:50:53;3.77;;;1.30;;
17091;SDS011;8661;45.700;4.880;2024-03-08T10:53:21;2.10;;;1.27;;
17091;SDS011;8661;45.700;4.880;2024-03-08T10:55:50;3.40;;;1.23;;
17091;SDS011;8661;45.700;4.880;2024-03-08T10:58:19;4.13;;;1.37;;
17091;SDS011;8661;45.700;4.880;2024-03-08T11:00:47;1.10;;;0.97;;
17091;SDS011;8661;45.700;4.880;2024-03-08T11:06:14;2.13;;;1.00;;
17091;SDS011;8661;45.700;4.880;2024-03-08T11:08:44;3.73;;;1.63;;
17091;SDS011;8661;45.700;4.880;2024-03-08T11:11:25;2.60;;;1.00;;
17091;SDS011;8661;45.700;4.880;2024-03-08T11:13:59;2.93;;;1.30;;
17091;SDS011;8661;45.700;4.880;2024-03-08T11:16:37;2.97;;;1.63;;
17091;SDS011;8661;45.700;4.880;2024-03-08T11:19:23;1.50;;;1.10;;
17091;SDS011;8661;45.700;4.880;2024-03-08T11:22:01;3.13;;;1.70;;
17091;SDS011;8661;45.700;4.880;2024-03-08T11:24:40;2.10;;;1.40;;
17091;SDS011;8661;45.700;4.880;2024-03-08T11:27:07;1.53;;;1.00;;
17091;SDS011;8661;45.700;4.880;2024-03-08T11:29:38;1.50;;;1.20;;
17091;SDS011;8661;45.700;4.880;2024-03-08T11:32:09;2.23;;;1.13;;
17091;SDS011;8661;45.700;4.880;2024-03-08T11:34:37;2.17;;;1.40;;
17091;SDS011;8661;45.700;4.880;2024-03-08T11:37:10;3.77;;;1.10;;
17091;SDS011;8661;45.700;4.880;2024-03-08T11:39:41;1.60;;;1.10;;
17091;SDS011;8661;45.700;4.880;2024-03-08T11:42:13;3.77;;;1.17;;
17091;SDS011;8661;45.700;4.880;2024-03-08T11:44:41;2.20;;;1.10;;
17091;SDS011;8661;45.700;4.880;2024-03-08T11:47:09;1.73;;;1.00;;
17091;SDS011;8661;45.700;4.880;2024-03-08T11:49:36;2.53;;;1.07;;
17091;SDS011;8661;45.700;4.880;2024-03-08T11:52:03;4.83;;;1.30;;
17091;SDS011;8661;45.700;4.880;2024-03-08T11:54:30;11.43;;;1.80;;
17091;SDS011;8661;45.700;4.880;2024-03-08T11:57:00;3.27;;;1.40;;
17091;SDS011;8661;45.700;4.880;2024-03-08T11:59:28;2.77;;;1.23;;
17091;SDS011;8661;45.700;4.880;2024-03-08T12:01:59;1.43;;;1.00;;
17091;SDS011;8661;45.700;4.880;2024-03-08T12:04:28;2.30;;;1.20;;
17091;SDS011;8661;45.700;4.880;2024-03-08T12:06:57;2.80;;;1.10;;
17091;SDS011;8661;45.700;4.880;2024-03-08T12:09:26;2.47;;;0.80;;
17091;SDS011;8661;45.700;4.880;2024-03-08T12:11:55;3.00;;;1.20;;
17091;SDS011;8661;45.700;4.880;2024-03-08T12:14:23;2.57;;;1.20;;
17091;SDS011;8661;45.700;4.880;2024-03-08T12:16:50;3.57;;;1.50;;
17091;SDS011;8661;45.700;4.880;2024-03-08T12:19:17;2.33;;;1.43;;
17091;SDS011;8661;45.700;4.880;2024-03-08T12:21:44;4.17;;;2.50;;
17091;SDS011;8661;45.700;4.880;2024-03-08T12:24:14;3.67;;;2.00;;
17091;SDS011;8661;45.700;4.880;2024-03-08T12:26:44;3.30;;;1.30;;
17091;SDS011;8661;45.700;4.880;2024-03-08T12:29:16;3.63;;;1.83;;
17091;SDS011;8661;45.700;4.880;2024-03-08T12:31:47;3.53;;;1.50;;
17091;SDS011;8661;45.700;4.880;2024-03-08T12:34:15;2.70;;;2.00;;
17091;SDS011;8661;45.700;4.880;2024-03-08T12:36:45;2.83;;;1.27;;
17091;SDS011;8661;45.700;4.880;2024-03-08T12:39:17;3.27;;;1.10;;
17091;SDS011;8661;45.700;4.880;2024-03-08T12:41:47;5.03;;;1.67;;
17091;SDS011;8661;45.700;4.880;2024-03-08T12:44:14;5.10;;;1.70;;
17091;SDS011;8661;45.700;4.880;2024-03-08T12:46:42;3.73;;;1.20;;
17091;SDS011;8661;45.700;4.880;2024-03-08T12:49:12;4.27;;;2.30;;
17091;SDS011;8661;45.700;4.880;2024-03-08T12:51:42;2.47;;;1.20;;
17091;SDS011;8661;45.700;4.880;2024-03-08T12:54:10;1.37;;;0.90;;
17091;SDS011;8661;45.700;4.880;2024-03-08T12:56:37;1.40;;;1.00;;
17091;SDS011;8661;45.700;4.880;2024-03-08T12:59:05;0.50;;;0.50;;
17091;SDS011;8661;45.700;4.880;2024-03-08T13:01:33;1.80;;;0.77;;
17091;SDS011;8661;45.700;4.880;2024-03-08T13:04:02;2.87;;;0.90;;
17091;SDS011;8661;45.700;4.880;2024-03-08T13:06:32;4.20;;;1.00;;
17091;SDS011;8661;45.700;4.880;2024-03-08T13:08:59;1.77;;;1.00;;
17091;SDS011;8661;45.700;4.880;2024-03-08T13:11:30;5.43;;;1.30;;
17091;SDS011;8661;45.700;4.880;2024-03-08T13:14:01;2.33;;;0.97;;
17091;SDS011;8661;45.700;4.880;2024-03-08T13:16:30;3.33;;;1.30;;
17091;SDS011;8661;45.700;4.880;2024-03-08T13:18:57;2.50;;;1.43;;
17091;SDS011;8661;45.700;4.880;2024-03-08T13:21:24;3.30;;;1.37;;
17091;SDS011;8661;45.700;4.880;2024-03-08T13:23:53;2.37;;;1.47;;
17091;SDS011;8661;45.700;4.880;2024-03-08T13:26:20;1.97;;;1.20;;
17091;SDS011;8661;45.700;4.880;2024-03-08T13:28:50;2.77;;;0.93;;
17091;SDS011;8661;45.700;4.880;2024-03-08T13:31:18;4.20;;;2.00;;
17091;SDS011;8661;45.700;4.880;2024-03-08T13:33:45;4.20;;;1.00;;
17091;SDS011;8661;45.700;4.880;2024-03-08T13:36:12;1.20;;;0.90;;
17091;SDS011;8661;45.700;4.880;2024-03-08T13:38:41;2.00;;;1.43;;
17091;SDS011;8661;45.700;4.880;2024-03-08T13:41:11;2.00;;;1.47;;
17091;SDS011;8661;45.700;4.880;2024-03-08T13:43:39;2.20;;;1.33;;
17091;SDS011;8661;45.700;4.880;2024-03-08T13:46:07;1.20;;;1.10;;
17091;SDS011;8661;45.700;4.880;2024-03-08T13:48:35;3.00;;;1.30;;
17091;SDS011;8661;45.700;4.880;2024-03-08T13:51:03;1.90;;;1.33;;
17091;SDS011;8661;45.700;4.880;2024-03-08T13:53:31;3.33;;;1.30;;
17091;SDS011;8661;45.700;4.880;2024-03-08T13:55:59;5.57;;;1.23;;
17091;SDS011;8661;45.700;4.880;2024-03-08T13:58:29;2.63;;;0.90;;
17091;SDS011;8661;45.700;4.880;2024-03-08T14:00:56;4.20;;;1.07;;
17091;SDS011;8661;45.700;4.880;2024-03-08T14:03:23;2.57;;;1.10;;
17091;SDS011;8661;45.700;4.880;2024-03-08T14:05:51;1.47;;;0.63;;
17091;SDS011;8661;45.700;4.880;2024-03-08T14:08:17;2.70;;;1.00;;
17091;SDS011;8661;45.700;4.880;2024-03-08T14:10:44;1.33;;;0.80;;
17091;SDS011;8661;45.700;4.880;2024-03-08T14:13:15;1.37;;;0.80;;
17091;SDS011;8661;45.700;4.880;2024-03-08T14:15:45;1.57;;;0.80;;
17091;SDS011;8661;45.700;4.880;2024-03-08T14:18:13;1.10;;;0.80;;
17091;SDS011;8661;45.700;4.880;2024-03-08T14:20:40;4.10;;;1.00;;
17091;SDS011;8661;45.700;4.880;2024-03-08T14:23:08;4.53;;;1.17;;
17091;SDS011;8661;45.700;4.880;2024-03-08T14:25:35;3.03;;;1.00;;
17091;SDS011;8661;45.700;4.880;2024-03-08T14:28:02;2.07;;;0.80;;
17091;SDS011;8661;45.700;4.880;2024-03-08T14:30:32;1.03;;;0.60;;
17091;SDS011;8661;45.700;4.880;2024-03-08T14:33:01;3.93;;;0.80;;
17091;SDS011;8661;45.700;4.880;2024-03-08T14:35:28;0.90;;;0.70;;
17091;SDS011;8661;45.700;4.880;2024-03-08T14:37:55;4.03;;;0.97;;
17091;SDS011;8661;45.700;4.880;2024-03-08T14:40:23;2.77;;;0.83;;
17091;SDS011;8661;45.700;4.880;2024-03-08T14:42:51;0.70;;;0.70;;
17091;SDS011;8661;45.700;4.880;2024-03-08T14:45:19;1.33;;;0.93;;
17091;SDS011;8661;45.700;4.880;2024-03-08T14:47:46;1.37;;;0.80;;
17091;SDS011;8661;45.700;4.880;2024-03-08T14:50:17;2.40;;;0.90;;
17091;SDS011;8661;45.700;4.880;2024-03-08T14:52:45;1.43;;;0.80;;
17091;SDS011;8661;45.700;4.880;2024-03-08T14:55:13;0.70;;;0.70;;
17091;SDS011;8661;45.700;4.880;2024-03-08T14:57:40;1.67;;;0.60;;
17091;SDS011;8661;45.700;4.880;2024-03-08T15:00:10;1.17;;;0.90;;
17091;SDS011;8661;45.700;4.880;2024-03-08T15:02:42;1.30;;;0.90;;
17091;SDS011;8661;45.700;4.880;2024-03-08T15:05:09;1.27;;;1.00;;
17091;SDS011;8661;45.700;4.880;2024-03-08T15:07:39;1.83;;;0.70;;
17091;SDS011;8661;45.700;4.880;2024-03-08T15:10:07;1.40;;;0.87;;